Brillion, Wisconsin
Current Conditions -  °F | °C
As of 5:56 AM on Friday 28 Nov 2014 (Local Time) from KMTW Reporting Station
Overcast Overcast  
Wind Chill: 12°   Ceiling: 9000
Heat Index: 12°   Visibility: 10mi
Dew Point:   Wind: 3mph
Humidity: 84%   Direction: 240°WSW
Pressure: 30.26"   Gusts: NA
Location:  44.18°N, 88.06°W
Report Text: KMTW 281156Z AUTO 24003KT 10SM BKN090 OVC120 M11/M13 A3026 RMK AO2 SLP275 T11111133 11111 21150 58030 FZRANO
Loading
Personal Weather Stations






























Interactive Weather Map New forecast layout! Learn more

10-Day Weather Forecast

Advertisements
Track Severe Weather on mobile